sensor_id;sensor_type;location;lat;lon;timestamp;temperature;humidity
59301;DHT22;45073;52.740;6.784;2022-09-29T00:01:08;8.90;99.90
59301;DHT22;45073;52.740;6.784;2022-09-29T00:03:34;9.00;99.90
59301;DHT22;45073;52.740;6.784;2022-09-29T00:06:00;9.00;99.90
59301;DHT22;45073;52.740;6.784;2022-09-29T00:08:29;8.90;99.90
59301;DHT22;45073;52.740;6.784;2022-09-29T00:10:55;8.90;99.90
59301;DHT22;45073;52.740;6.784;2022-09-29T00:13:21;8.90;99.90
59301;DHT22;45073;52.740;6.784;2022-09-29T00:15:55;8.90;99.90
59301;DHT22;45073;52.740;6.784;2022-09-29T00:18:21;8.90;99.90
59301;DHT22;45073;52.740;6.784;2022-09-29T00:21:05;8.90;99.90
59301;DHT22;45073;52.740;6.784;2022-09-29T00:23:32;8.90;99.90
59301;DHT22;45073;52.740;6.784;2022-09-29T00:26:05;8.90;99.90
59301;DHT22;45073;52.740;6.784;2022-09-29T00:28:32;8.90;99.90
59301;DHT22;45073;52.740;6.784;2022-09-29T00:30:59;8.80;99.90
59301;DHT22;45073;52.740;6.784;2022-09-29T00:33:29;8.80;99.90
59301;DHT22;45073;52.740;6.784;2022-09-29T00:36:00;8.80;99.90
59301;DHT22;45073;52.740;6.784;2022-09-29T00:38:27;8.80;99.90
59301;DHT22;45073;52.740;6.784;2022-09-29T00:40:53;8.80;99.90
59301;DHT22;45073;52.740;6.784;2022-09-29T00:43:25;8.80;99.90
59301;DHT22;45073;52.740;6.784;2022-09-29T00:46:06;8.80;99.90
59301;DHT22;45073;52.740;6.784;2022-09-29T00:48:32;8.80;99.90
59301;DHT22;45073;52.740;6.784;2022-09-29T00:50:58;8.70;99.90
59301;DHT22;45073;52.740;6.784;2022-09-29T00:53:25;8.60;99.90
59301;DHT22;45073;52.740;6.784;2022-09-29T00:56:07;8.60;99.90
59301;DHT22;45073;52.740;6.784;2022-09-29T00:58:39;8.60;99.90
59301;DHT22;45073;52.740;6.784;2022-09-29T01:01:07;8.60;99.90
59301;DHT22;45073;52.740;6.784;2022-09-29T01:03:40;8.50;99.90
59301;DHT22;45073;52.740;6.784;2022-09-29T01:06:13;8.60;99.90
59301;DHT22;45073;52.740;6.784;2022-09-29T01:08:50;8.50;99.90
59301;DHT22;45073;52.740;6.784;2022-09-29T01:11:20;8.50;99.90
59301;DHT22;45073;52.740;6.784;2022-09-29T01:13:46;8.50;99.90
59301;DHT22;45073;52.740;6.784;2022-09-29T01:16:12;8.50;99.90
59301;DHT22;45073;52.740;6.784;2022-09-29T01:18:38;8.40;99.90
59301;DHT22;45073;52.740;6.784;2022-09-29T01:21:38;8.40;99.90
59301;DHT22;45073;52.740;6.784;2022-09-29T01:27:23;8.30;99.90
59301;DHT22;45073;52.740;6.784;2022-09-29T01:30:13;8.20;99.90
59301;DHT22;45073;52.740;6.784;2022-09-29T01:35:52;8.00;99.90
59301;DHT22;45073;52.740;6.784;2022-09-29T01:38:46;8.00;99.90
59301;DHT22;45073;52.740;6.784;2022-09-29T01:44:05;7.70;99.90
59301;DHT22;45073;52.740;6.784;2022-09-29T01:46:40;7.60;99.90
59301;DHT22;45073;52.740;6.784;2022-09-29T01:49:08;7.50;99.90
59301;DHT22;45073;52.740;6.784;2022-09-29T01:51:41;7.50;99.90
59301;DHT22;45073;52.740;6.784;2022-09-29T01:54:20;7.40;99.90
59301;DHT22;45073;52.740;6.784;2022-09-29T01:57:07;7.40;99.90
59301;DHT22;45073;52.740;6.784;2022-09-29T01:59:42;7.40;99.90
59301;DHT22;45073;52.740;6.784;2022-09-29T02:02:14;7.30;99.90
59301;DHT22;45073;52.740;6.784;2022-09-29T02:04:46;7.30;99.90
59301;DHT22;45073;52.740;6.784;2022-09-29T02:07:21;7.20;99.90
59301;DHT22;45073;52.740;6.784;2022-09-29T02:09:54;7.10;99.90
59301;DHT22;45073;52.740;6.784;2022-09-29T02:12:25;7.10;99.90
59301;DHT22;45073;52.740;6.784;2022-09-29T02:14:53;7.10;99.90
59301;DHT22;45073;52.740;6.784;2022-09-29T02:17:33;7.10;99.90
59301;DHT22;45073;52.740;6.784;2022-09-29T02:20:02;7.10;99.90
59301;DHT22;45073;52.740;6.784;2022-09-29T02:22:28;7.10;99.90
59301;DHT22;45073;52.740;6.784;2022-09-29T02:24:56;7.10;99.90
59301;DHT22;45073;52.740;6.784;2022-09-29T02:27:25;7.20;99.90
59301;DHT22;45073;52.740;6.784;2022-09-29T02:29:53;7.10;99.90
59301;DHT22;45073;52.740;6.784;2022-09-29T02:32:19;7.10;99.90
59301;DHT22;45073;52.740;6.784;2022-09-29T02:34:47;7.10;99.90
59301;DHT22;45073;52.740;6.784;2022-09-29T02:40:21;7.00;99.90
59301;DHT22;45073;52.740;6.784;2022-09-29T02:51:26;7.00;99.90
59301;DHT22;45073;52.740;6.784;2022-09-29T02:54:18;6.90;99.90
59301;DHT22;45073;52.740;6.784;2022-09-29T02:56:53;6.90;99.90
59301;DHT22;45073;52.740;6.784;2022-09-29T02:59:28;6.80;99.90
59301;DHT22;45073;52.740;6.784;2022-09-29T03:01:56;6.80;99.90
59301;DHT22;45073;52.740;6.784;2022-09-29T03:04:24;6.80;99.90
59301;DHT22;45073;52.740;6.784;2022-09-29T03:06:51;6.70;99.90
59301;DHT22;45073;52.740;6.784;2022-09-29T03:09:17;6.70;99.90
59301;DHT22;45073;52.740;6.784;2022-09-29T03:11:43;6.60;99.90
59301;DHT22;45073;52.740;6.784;2022-09-29T03:14:08;6.70;99.90
59301;DHT22;45073;52.740;6.784;2022-09-29T03:16:34;6.70;99.90
59301;DHT22;45073;52.740;6.784;2022-09-29T03:19:01;6.60;99.90
59301;DHT22;45073;52.740;6.784;2022-09-29T03:21:28;6.70;99.90
59301;DHT22;45073;52.740;6.784;2022-09-29T03:23:53;6.70;99.90
59301;DHT22;45073;52.740;6.784;2022-09-29T03:26:19;6.70;99.90
59301;DHT22;45073;52.740;6.784;2022-09-29T03:28:44;6.70;99.90
59301;DHT22;45073;52.740;6.784;2022-09-29T03:31:10;6.70;99.90
59301;DHT22;45073;52.740;6.784;2022-09-29T03:33:37;6.70;99.90
59301;DHT22;45073;52.740;6.784;2022-09-29T03:36:04;6.70;99.90
59301;DHT22;45073;52.740;6.784;2022-09-29T03:38:31;6.70;99.90
59301;DHT22;45073;52.740;6.784;2022-09-29T03:40:56;6.70;99.90
59301;DHT22;45073;52.740;6.784;2022-09-29T03:43:22;6.80;99.90
59301;DHT22;45073;52.740;6.784;2022-09-29T03:45:49;6.80;99.90
59301;DHT22;45073;52.740;6.784;2022-09-29T03:48:15;6.80;99.90
59301;DHT22;45073;52.740;6.784;2022-09-29T03:50:41;6.80;99.90
59301;DHT22;45073;52.740;6.784;2022-09-29T03:53:06;6.80;99.90
59301;DHT22;45073;52.740;6.784;2022-09-29T03:55:32;6.80;99.90
59301;DHT22;45073;52.740;6.784;2022-09-29T03:57:57;6.80;99.90
59301;DHT22;45073;52.740;6.784;2022-09-29T04:00:23;6.80;99.90
59301;DHT22;45073;52.740;6.784;2022-09-29T04:02:48;6.80;99.90
59301;DHT22;45073;52.740;6.784;2022-09-29T04:05:14;6.70;99.90
59301;DHT22;45073;52.740;6.784;2022-09-29T04:07:40;6.70;99.90
59301;DHT22;45073;52.740;6.784;2022-09-29T04:10:06;6.60;99.90
59301;DHT22;45073;52.740;6.784;2022-09-29T04:12:31;6.60;99.90
59301;DHT22;45073;52.740;6.784;2022-09-29T04:14:57;6.50;99.90
59301;DHT22;45073;52.740;6.784;2022-09-29T04:17:22;6.40;99.90
59301;DHT22;45073;52.740;6.784;2022-09-29T04:19:48;6.40;99.90
59301;DHT22;45073;52.740;6.784;2022-09-29T04:22:14;6.40;99.90
59301;DHT22;45073;52.740;6.784;2022-09-29T04:24:43;6.30;99.90
59301;DHT22;45073;52.740;6.784;2022-09-29T04:27:08;6.30;99.90
59301;DHT22;45073;52.740;6.784;2022-09-29T04:29:34;6.30;99.90
59301;DHT22;45073;52.740;6.784;2022-09-29T04:31:59;6.30;99.90
59301;DHT22;45073;52.740;6.784;2022-09-29T04:34:25;6.30;99.90
59301;DHT22;45073;52.740;6.784;2022-09-29T04:36:51;6.30;99.90
59301;DHT22;45073;52.740;6.784;2022-09-29T04:39:16;6.30;99.90
59301;DHT22;45073;52.740;6.784;2022-09-29T04:41:42;6.20;99.90
59301;DHT22;45073;52.740;6.784;2022-09-29T04:44:07;6.20;99.90
59301;DHT22;45073;52.740;6.784;2022-09-29T04:46:33;6.10;99.90
59301;DHT22;45073;52.740;6.784;2022-09-29T04:48:58;6.10;99.90
59301;DHT22;45073;52.740;6.784;2022-09-29T04:51:24;6.10;99.90
59301;DHT22;45073;52.740;6.784;2022-09-29T04:53:49;6.00;99.90
59301;DHT22;45073;52.740;6.784;2022-09-29T04:56:17;5.90;99.90
59301;DHT22;45073;52.740;6.784;2022-09-29T04:58:43;5.80;99.90
59301;DHT22;45073;52.740;6.784;2022-09-29T05:01:10;5.80;99.90
59301;DHT22;45073;52.740;6.784;2022-09-29T05:03:38;5.70;99.90
59301;DHT22;45073;52.740;6.784;2022-09-29T05:06:03;5.70;99.90
59301;DHT22;45073;52.740;6.784;2022-09-29T05:08:29;5.70;99.90
59301;DHT22;45073;52.740;6.784;2022-09-29T05:10:55;5.60;99.90
59301;DHT22;45073;52.740;6.784;2022-09-29T05:13:20;5.50;99.90
59301;DHT22;45073;52.740;6.784;2022-09-29T05:15:46;5.50;99.90
59301;DHT22;45073;52.740;6.784;2022-09-29T05:18:11;5.60;99.90
59301;DHT22;45073;52.740;6.784;2022-09-29T05:20:37;5.60;99.90
59301;DHT22;45073;52.740;6.784;2022-09-29T05:23:02;5.60;99.90
59301;DHT22;45073;52.740;6.784;2022-09-29T05:25:35;5.60;99.90
59301;DHT22;45073;52.740;6.784;2022-09-29T05:28:01;5.60;99.90
59301;DHT22;45073;52.740;6.784;2022-09-29T05:30:26;5.70;99.90
59301;DHT22;45073;52.740;6.784;2022-09-29T05:32:52;5.60;99.90
59301;DHT22;45073;52.740;6.784;2022-09-29T05:35:17;5.60;99.90
59301;DHT22;45073;52.740;6.784;2022-09-29T05:37:44;5.60;99.90
59301;DHT22;45073;52.740;6.784;2022-09-29T05:40:10;5.60;99.90
59301;DHT22;45073;52.740;6.784;2022-09-29T05:42:36;5.70;99.90
59301;DHT22;45073;52.740;6.784;2022-09-29T05:45:01;5.60;99.90
59301;DHT22;45073;52.740;6.784;2022-09-29T05:47:27;5.60;99.90
59301;DHT22;45073;52.740;6.784;2022-09-29T05:49:53;5.60;99.90
59301;DHT22;45073;52.740;6.784;2022-09-29T05:52:18;5.60;99.90
59301;DHT22;45073;52.740;6.784;2022-09-29T05:54:44;5.60;99.90
59301;DHT22;45073;52.740;6.784;2022-09-29T05:57:10;5.60;99.90
59301;DHT22;45073;52.740;6.784;2022-09-29T05:59:35;5.60;99.90
59301;DHT22;45073;52.740;6.784;2022-09-29T06:02:01;5.60;99.90
59301;DHT22;45073;52.740;6.784;2022-09-29T06:04:26;5.60;99.90
59301;DHT22;45073;52.740;6.784;2022-09-29T06:06:52;5.60;99.90
59301;DHT22;45073;52.740;6.784;2022-09-29T06:09:19;5.60;99.90
59301;DHT22;45073;52.740;6.784;2022-09-29T06:11:45;5.60;99.90
59301;DHT22;45073;52.740;6.784;2022-09-29T06:14:10;5.60;99.90
59301;DHT22;45073;52.740;6.784;2022-09-29T06:16:36;5.60;99.90
59301;DHT22;45073;52.740;6.784;2022-09-29T06:19:03;5.60;99.90
59301;DHT22;45073;52.740;6.784;2022-09-29T06:21:30;5.60;99.90
59301;DHT22;45073;52.740;6.784;2022-09-29T06:23:56;5.60;99.90
59301;DHT22;45073;52.740;6.784;2022-09-29T06:26:23;5.60;99.90
59301;DHT22;45073;52.740;6.784;2022-09-29T06:28:49;5.70;99.90
59301;DHT22;45073;52.740;6.784;2022-09-29T06:31:18;5.70;99.90
59301;DHT22;45073;52.740;6.784;2022-09-29T06:33:44;5.70;99.90
59301;DHT22;45073;52.740;6.784;2022-09-29T06:36:21;5.70;99.90
59301;DHT22;45073;52.740;6.784;2022-09-29T06:39:08;5.70;99.90
59301;DHT22;45073;52.740;6.784;2022-09-29T06:41:33;5.70;99.90
59301;DHT22;45073;52.740;6.784;2022-09-29T06:44:00;5.70;99.90
59301;DHT22;45073;52.740;6.784;2022-09-29T06:46:25;5.80;99.90
59301;DHT22;45073;52.740;6.784;2022-09-29T06:48:52;5.80;99.90
59301;DHT22;45073;52.740;6.784;2022-09-29T06:51:18;5.80;99.90
59301;DHT22;45073;52.740;6.784;2022-09-29T06:53:47;5.80;99.90
59301;DHT22;45073;52.740;6.784;2022-09-29T06:56:12;5.90;99.90
59301;DHT22;45073;52.740;6.784;2022-09-29T06:58:38;5.90;99.90
59301;DHT22;45073;52.740;6.784;2022-09-29T07:01:04;5.90;99.90
59301;DHT22;45073;52.740;6.784;2022-09-29T07:03:30;6.00;99.90
59301;DHT22;45073;52.740;6.784;2022-09-29T07:06:00;6.00;99.90
59301;DHT22;45073;52.740;6.784;2022-09-29T07:08:26;6.00;99.90
59301;DHT22;45073;52.740;6.784;2022-09-29T07:10:53;6.10;99.90
59301;DHT22;45073;52.740;6.784;2022-09-29T07:13:18;6.10;99.90
59301;DHT22;45073;52.740;6.784;2022-09-29T07:15:44;6.10;99.90
59301;DHT22;45073;52.740;6.784;2022-09-29T07:18:12;6.10;99.90
59301;DHT22;45073;52.740;6.784;2022-09-29T07:20:39;6.20;99.90
59301;DHT22;45073;52.740;6.784;2022-09-29T07:23:06;6.20;99.90
59301;DHT22;45073;52.740;6.784;2022-09-29T07:25:33;6.20;99.90
59301;DHT22;45073;52.740;6.784;2022-09-29T07:28:00;6.30;99.90
59301;DHT22;45073;52.740;6.784;2022-09-29T07:30:25;6.40;99.90
59301;DHT22;45073;52.740;6.784;2022-09-29T07:32:52;6.40;99.90
59301;DHT22;45073;52.740;6.784;2022-09-29T07:35:20;6.50;99.90
59301;DHT22;45073;52.740;6.784;2022-09-29T07:37:54;6.50;99.90
59301;DHT22;45073;52.740;6.784;2022-09-29T07:40:21;6.60;99.90
59301;DHT22;45073;52.740;6.784;2022-09-29T07:42:47;6.60;99.90
59301;DHT22;45073;52.740;6.784;2022-09-29T07:45:16;6.70;99.90
59301;DHT22;45073;52.740;6.784;2022-09-29T07:47:42;6.80;99.90
59301;DHT22;45073;52.740;6.784;2022-09-29T07:50:08;6.80;99.90
59301;DHT22;45073;52.740;6.784;2022-09-29T07:52:34;6.90;99.90
59301;DHT22;45073;52.740;6.784;2022-09-29T07:55:00;7.00;99.90
59301;DHT22;45073;52.740;6.784;2022-09-29T07:57:25;7.10;99.90
59301;DHT22;45073;52.740;6.784;2022-09-29T07:59:51;7.10;99.90
59301;DHT22;45073;52.740;6.784;2022-09-29T08:02:19;7.20;99.90
59301;DHT22;45073;52.740;6.784;2022-09-29T08:04:45;7.30;99.90
59301;DHT22;45073;52.740;6.784;2022-09-29T08:07:10;7.40;99.90
59301;DHT22;45073;52.740;6.784;2022-09-29T08:09:36;7.40;99.90
59301;DHT22;45073;52.740;6.784;2022-09-29T08:12:01;7.50;99.90
59301;DHT22;45073;52.740;6.784;2022-09-29T08:14:27;7.50;99.90
59301;DHT22;45073;52.740;6.784;2022-09-29T08:16:52;7.60;99.90
59301;DHT22;45073;52.740;6.784;2022-09-29T08:19:18;7.60;99.90
59301;DHT22;45073;52.740;6.784;2022-09-29T08:21:44;7.70;99.90
59301;DHT22;45073;52.740;6.784;2022-09-29T08:24:12;7.80;99.90
59301;DHT22;45073;52.740;6.784;2022-09-29T08:26:38;7.90;99.90
59301;DHT22;45073;52.740;6.784;2022-09-29T08:29:04;8.00;99.90
59301;DHT22;45073;52.740;6.784;2022-09-29T08:31:30;8.10;99.90
59301;DHT22;45073;52.740;6.784;2022-09-29T08:33:57;8.20;99.90
59301;DHT22;45073;52.740;6.784;2022-09-29T08:36:26;8.20;99.90
59301;DHT22;45073;52.740;6.784;2022-09-29T08:38:53;8.30;99.90
59301;DHT22;45073;52.740;6.784;2022-09-29T08:44:43;8.50;99.90
59301;DHT22;45073;52.740;6.784;2022-09-29T08:47:31;8.60;99.90
59301;DHT22;45073;52.740;6.784;2022-09-29T08:50:03;8.70;99.90
59301;DHT22;45073;52.740;6.784;2022-09-29T08:52:37;8.70;99.90
59301;DHT22;45073;52.740;6.784;2022-09-29T08:57:41;9.00;99.90
59301;DHT22;45073;52.740;6.784;2022-09-29T09:00:12;9.10;99.90
59301;DHT22;45073;52.740;6.784;2022-09-29T09:02:57;9.20;99.90
59301;DHT22;45073;52.740;6.784;2022-09-29T09:05:50;9.30;99.90
59301;DHT22;45073;52.740;6.784;2022-09-29T09:08:46;9.40;99.90
59301;DHT22;45073;52.740;6.784;2022-09-29T09:12:07;9.50;99.90
59301;DHT22;45073;52.740;6.784;2022-09-29T09:21:19;9.80;99.90
59301;DHT22;45073;52.740;6.784;2022-09-29T09:23:20;9.80;99.90
59301;DHT22;45073;52.740;6.784;2022-09-29T09:25:55;9.90;99.90
59301;DHT22;45073;52.740;6.784;2022-09-29T09:28:35;9.90;99.90
59301;DHT22;45073;52.740;6.784;2022-09-29T09:31:25;10.00;99.90
59301;DHT22;45073;52.740;6.784;2022-09-29T09:34:06;10.10;99.90
59301;DHT22;45073;52.740;6.784;2022-09-29T09:36:44;10.10;99.90
59301;DHT22;45073;52.740;6.784;2022-09-29T09:39:17;10.20;99.90
59301;DHT22;45073;52.740;6.784;2022-09-29T09:41:46;10.20;99.90
59301;DHT22;45073;52.740;6.784;2022-09-29T09:44:17;10.30;99.90
59301;DHT22;45073;52.740;6.784;2022-09-29T09:49:18;10.50;99.90
59301;DHT22;45073;52.740;6.784;2022-09-29T09:51:58;10.60;99.90
59301;DHT22;45073;52.740;6.784;2022-09-29T09:54:41;10.60;99.90
59301;DHT22;45073;52.740;6.784;2022-09-29T10:00:11;10.80;99.90
59301;DHT22;45073;52.740;6.784;2022-09-29T10:02:44;11.00;99.90
59301;DHT22;45073;52.740;6.784;2022-09-29T10:05:18;11.10;99.90
59301;DHT22;45073;52.740;6.784;2022-09-29T10:07:45;11.10;99.90
59301;DHT22;45073;52.740;6.784;2022-09-29T10:10:19;11.20;99.90
59301;DHT22;45073;52.740;6.784;2022-09-29T10:12:47;11.30;99.90
59301;DHT22;45073;52.740;6.784;2022-09-29T10:15:19;11.40;99.90
59301;DHT22;45073;52.740;6.784;2022-09-29T10:17:49;11.40;99.90
59301;DHT22;45073;52.740;6.784;2022-09-29T10:20:32;11.50;99.90
59301;DHT22;45073;52.740;6.784;2022-09-29T10:23:32;11.60;99.90
59301;DHT22;45073;52.740;6.784;2022-09-29T10:28:35;11.80;99.90
59301;DHT22;45073;52.740;6.784;2022-09-29T10:31:02;11.90;99.90
59301;DHT22;45073;52.740;6.784;2022-09-29T10:33:28;11.90;99.90
59301;DHT22;45073;52.740;6.784;2022-09-29T10:36:19;12.00;99.90
59301;DHT22;45073;52.740;6.784;2022-09-29T10:38:49;12.20;99.90
59301;DHT22;45073;52.740;6.784;2022-09-29T10:41:15;12.30;99.90
59301;DHT22;45073;52.740;6.784;2022-09-29T10:43:42;12.30;99.90
59301;DHT22;45073;52.740;6.784;2022-09-29T10:46:48;12.40;99.90
59301;DHT22;45073;52.740;6.784;2022-09-29T10:49:15;12.50;99.90
59301;DHT22;45073;52.740;6.784;2022-09-29T10:52:03;12.60;99.90
59301;DHT22;45073;52.740;6.784;2022-09-29T10:54:35;12.60;99.90
59301;DHT22;45073;52.740;6.784;2022-09-29T10:57:12;12.70;99.90
59301;DHT22;45073;52.740;6.784;2022-09-29T10:59:50;12.80;99.90
59301;DHT22;45073;52.740;6.784;2022-09-29T11:02:25;12.80;99.90
59301;DHT22;45073;52.740;6.784;2022-09-29T11:04:56;12.90;99.90
59301;DHT22;45073;52.740;6.784;2022-09-29T11:07:23;13.00;99.90
59301;DHT22;45073;52.740;6.784;2022-09-29T11:09:49;13.10;99.90
59301;DHT22;45073;52.740;6.784;2022-09-29T11:12:31;13.20;99.90
59301;DHT22;45073;52.740;6.784;2022-09-29T11:14:59;13.30;99.90
59301;DHT22;45073;52.740;6.784;2022-09-29T11:17:30;13.40;99.90
59301;DHT22;45073;52.740;6.784;2022-09-29T11:19:59;13.40;99.90
59301;DHT22;45073;52.740;6.784;2022-09-29T11:25:55;13.50;99.90
59301;DHT22;45073;52.740;6.784;2022-09-29T11:29:13;13.60;99.90
59301;DHT22;45073;52.740;6.784;2022-09-29T11:32:26;13.70;99.90
59301;DHT22;45073;52.740;6.784;2022-09-29T11:34:46;13.80;99.90
59301;DHT22;45073;52.740;6.784;2022-09-29T11:40:26;14.00;99.90
59301;DHT22;45073;52.740;6.784;2022-09-29T11:51:23;14.40;99.90
59301;DHT22;45073;52.740;6.784;2022-09-29T11:54:09;14.50;99.90
59301;DHT22;45073;52.740;6.784;2022-09-29T11:56:53;14.60;99.90
59301;DHT22;45073;52.740;6.784;2022-09-29T12:02:02;14.70;99.90
59301;DHT22;45073;52.740;6.784;2022-09-29T12:04:55;14.80;99.90
59301;DHT22;45073;52.740;6.784;2022-09-29T12:10:20;14.90;99.90
59301;DHT22;45073;52.740;6.784;2022-09-29T12:13:02;15.00;99.90
59301;DHT22;45073;52.740;6.784;2022-09-29T12:15:45;15.20;99.90
59301;DHT22;45073;52.740;6.784;2022-09-29T12:18:34;15.30;99.90
59301;DHT22;45073;52.740;6.784;2022-09-29T12:21:02;15.40;99.90
59301;DHT22;45073;52.740;6.784;2022-09-29T12:23:30;15.50;99.90
59301;DHT22;45073;52.740;6.784;2022-09-29T12:26:10;15.60;99.90
59301;DHT22;45073;52.740;6.784;2022-09-29T12:28:53;15.60;99.90
59301;DHT22;45073;52.740;6.784;2022-09-29T12:31:30;15.60;99.90
59301;DHT22;45073;52.740;6.784;2022-09-29T12:34:02;15.70;99.90
59301;DHT22;45073;52.740;6.784;2022-09-29T12:36:37;15.90;99.90
59301;DHT22;45073;52.740;6.784;2022-09-29T12:39:40;16.00;99.90
59301;DHT22;45073;52.740;6.784;2022-09-29T12:45:21;16.30;99.90
59301;DHT22;45073;52.740;6.784;2022-09-29T12:48:00;16.40;99.90
59301;DHT22;45073;52.740;6.784;2022-09-29T12:50:38;16.60;99.90
59301;DHT22;45073;52.740;6.784;2022-09-29T12:53:22;16.70;99.90
59301;DHT22;45073;52.740;6.784;2022-09-29T12:55:58;16.90;99.90
59301;DHT22;45073;52.740;6.784;2022-09-29T12:58:56;16.90;98.70
59301;DHT22;45073;52.740;6.784;2022-09-29T13:01:33;17.20;99.90
59301;DHT22;45073;52.740;6.784;2022-09-29T13:10:00;18.10;96.40
59301;DHT22;45073;52.740;6.784;2022-09-29T13:13:04;18.80;94.00
59301;DHT22;45073;52.740;6.784;2022-09-29T13:26:34;24.70;63.50
59301;DHT22;45073;52.740;6.784;2022-09-29T13:29:13;25.40;63.50
59301;DHT22;45073;52.740;6.784;2022-09-29T13:31:40;26.30;60.10
59301;DHT22;45073;52.740;6.784;2022-09-29T13:34:37;27.00;57.60
59301;DHT22;45073;52.740;6.784;2022-09-29T13:37:24;27.60;55.00
59301;DHT22;45073;52.740;6.784;2022-09-29T13:39:54;28.30;54.00
59301;DHT22;45073;52.740;6.784;2022-09-29T13:42:36;28.60;52.10
59301;DHT22;45073;52.740;6.784;2022-09-29T13:47:53;28.90;49.20
59301;DHT22;45073;52.740;6.784;2022-09-29T13:50:42;29.10;49.00
59301;DHT22;45073;52.740;6.784;2022-09-29T14:00:55;27.90;47.00
59301;DHT22;45073;52.740;6.784;2022-09-29T14:03:27;27.30;47.60
59301;DHT22;45073;52.740;6.784;2022-09-29T14:06:20;26.60;47.10
59301;DHT22;45073;52.740;6.784;2022-09-29T14:08:58;25.90;47.60
59301;DHT22;45073;52.740;6.784;2022-09-29T14:11:36;25.30;48.30
59301;DHT22;45073;52.740;6.784;2022-09-29T14:14:05;24.90;48.70
59301;DHT22;45073;52.740;6.784;2022-09-29T14:16:44;24.40;49.80
59301;DHT22;45073;52.740;6.784;2022-09-29T14:19:23;24.20;49.90
59301;DHT22;45073;52.740;6.784;2022-09-29T14:21:56;24.10;50.50
59301;DHT22;45073;52.740;6.784;2022-09-29T14:24:40;24.20;50.90
59301;DHT22;45073;52.740;6.784;2022-09-29T14:27:29;23.90;51.10
59301;DHT22;45073;52.740;6.784;2022-09-29T14:30:01;24.00;52.40
59301;DHT22;45073;52.740;6.784;2022-09-29T14:35:23;23.80;51.70
59301;DHT22;45073;52.740;6.784;2022-09-29T14:38:08;24.10;53.00
59301;DHT22;45073;52.740;6.784;2022-09-29T14:40:35;25.00;51.00
59301;DHT22;45073;52.740;6.784;2022-09-29T14:43:12;25.80;49.60
59301;DHT22;45073;52.740;6.784;2022-09-29T14:49:20;24.80;49.40
59301;DHT22;45073;52.740;6.784;2022-09-29T15:00:30;24.10;49.90
59301;DHT22;45073;52.740;6.784;2022-09-29T15:02:58;24.20;50.10
59301;DHT22;45073;52.740;6.784;2022-09-29T15:07:52;23.40;50.40
59301;DHT22;45073;52.740;6.784;2022-09-29T15:10:25;22.90;51.20
59301;DHT22;45073;52.740;6.784;2022-09-29T15:12:51;22.40;53.10
59301;DHT22;45073;52.740;6.784;2022-09-29T15:15:32;21.80;54.80
59301;DHT22;45073;52.740;6.784;2022-09-29T15:20:57;20.90;57.30
59301;DHT22;45073;52.740;6.784;2022-09-29T15:23:33;20.50;57.00
59301;DHT22;45073;52.740;6.784;2022-09-29T15:26:02;20.20;58.80
59301;DHT22;45073;52.740;6.784;2022-09-29T15:28:33;20.10;59.30
59301;DHT22;45073;52.740;6.784;2022-09-29T15:31:03;20.10;59.00
59301;DHT22;45073;52.740;6.784;2022-09-29T15:33:30;20.00;59.80
59301;DHT22;45073;52.740;6.784;2022-09-29T15:36:28;19.90;60.70
59301;DHT22;45073;52.740;6.784;2022-09-29T15:39:01;19.60;60.90
59301;DHT22;45073;52.740;6.784;2022-09-29T15:41:29;19.40;62.20
59301;DHT22;45073;52.740;6.784;2022-09-29T15:44:10;19.30;63.10
59301;DHT22;45073;52.740;6.784;2022-09-29T15:46:46;19.30;64.80
59301;DHT22;45073;52.740;6.784;2022-09-29T15:49:18;19.30;65.90
59301;DHT22;45073;52.740;6.784;2022-09-29T15:52:00;19.20;66.60
59301;DHT22;45073;52.740;6.784;2022-09-29T15:54:32;19.20;69.30
59301;DHT22;45073;52.740;6.784;2022-09-29T15:57:02;19.10;70.70
59301;DHT22;45073;52.740;6.784;2022-09-29T15:59:54;19.00;72.40
59301;DHT22;45073;52.740;6.784;2022-09-29T16:02:39;18.80;72.90
59301;DHT22;45073;52.740;6.784;2022-09-29T16:05:11;18.60;72.10
59301;DHT22;45073;52.740;6.784;2022-09-29T16:07:46;18.40;74.10
59301;DHT22;45073;52.740;6.784;2022-09-29T16:10:21;18.20;76.60
59301;DHT22;45073;52.740;6.784;2022-09-29T16:12:56;17.90;76.50
59301;DHT22;45073;52.740;6.784;2022-09-29T16:15:30;17.80;78.70
59301;DHT22;45073;52.740;6.784;2022-09-29T16:17:58;17.80;81.40
59301;DHT22;45073;52.740;6.784;2022-09-29T16:20:29;17.90;85.60
59301;DHT22;45073;52.740;6.784;2022-09-29T16:22:56;17.90;88.20
59301;DHT22;45073;52.740;6.784;2022-09-29T16:25:29;17.90;90.50
59301;DHT22;45073;52.740;6.784;2022-09-29T16:28:00;17.70;90.80
59301;DHT22;45073;52.740;6.784;2022-09-29T16:30:34;17.70;90.70
59301;DHT22;45073;52.740;6.784;2022-09-29T16:33:15;17.70;90.60
59301;DHT22;45073;52.740;6.784;2022-09-29T16:38:33;17.50;92.00
59301;DHT22;45073;52.740;6.784;2022-09-29T16:43:36;17.40;93.30
59301;DHT22;45073;52.740;6.784;2022-09-29T16:46:05;17.30;94.00
59301;DHT22;45073;52.740;6.784;2022-09-29T16:48:37;17.30;94.30
59301;DHT22;45073;52.740;6.784;2022-09-29T16:51:14;17.20;94.60
59301;DHT22;45073;52.740;6.784;2022-09-29T16:53:40;17.10;95.30
59301;DHT22;45073;52.740;6.784;2022-09-29T16:56:14;17.00;96.30
59301;DHT22;45073;52.740;6.784;2022-09-29T16:58:43;16.80;96.90
59301;DHT22;45073;52.740;6.784;2022-09-29T17:01:10;16.70;98.40
59301;DHT22;45073;52.740;6.784;2022-09-29T17:03:38;16.70;98.90
59301;DHT22;45073;52.740;6.784;2022-09-29T17:06:04;16.60;99.70
59301;DHT22;45073;52.740;6.784;2022-09-29T17:08:31;16.50;99.90
59301;DHT22;45073;52.740;6.784;2022-09-29T17:10:59;16.40;99.90
59301;DHT22;45073;52.740;6.784;2022-09-29T17:13:29;16.30;99.90
59301;DHT22;45073;52.740;6.784;2022-09-29T17:15:56;16.20;99.90
59301;DHT22;45073;52.740;6.784;2022-09-29T17:18:22;16.10;99.90
59301;DHT22;45073;52.740;6.784;2022-09-29T17:20:51;16.00;99.90
59301;DHT22;45073;52.740;6.784;2022-09-29T17:23:16;15.90;99.90
59301;DHT22;45073;52.740;6.784;2022-09-29T17:25:44;15.90;99.90
59301;DHT22;45073;52.740;6.784;2022-09-29T17:28:19;15.80;99.90
59301;DHT22;45073;52.740;6.784;2022-09-29T17:30:49;15.80;99.90
59301;DHT22;45073;52.740;6.784;2022-09-29T17:33:17;15.70;99.90
59301;DHT22;45073;52.740;6.784;2022-09-29T17:35:44;15.70;99.90
59301;DHT22;45073;52.740;6.784;2022-09-29T17:38:14;15.60;99.90
59301;DHT22;45073;52.740;6.784;2022-09-29T17:40:59;15.50;99.90
59301;DHT22;45073;52.740;6.784;2022-09-29T17:43:27;15.50;99.90
59301;DHT22;45073;52.740;6.784;2022-09-29T17:45:53;15.40;99.90
59301;DHT22;45073;52.740;6.784;2022-09-29T17:48:21;15.30;99.90
59301;DHT22;45073;52.740;6.784;2022-09-29T17:50:51;15.30;99.90
59301;DHT22;45073;52.740;6.784;2022-09-29T17:53:19;15.30;99.90
59301;DHT22;45073;52.740;6.784;2022-09-29T17:55:46;15.10;99.90
59301;DHT22;45073;52.740;6.784;2022-09-29T17:58:14;15.10;99.90
59301;DHT22;45073;52.740;6.784;2022-09-29T18:00:42;15.10;99.90
59301;DHT22;45073;52.740;6.784;2022-09-29T18:03:10;15.00;99.90
59301;DHT22;45073;52.740;6.784;2022-09-29T18:05:38;15.00;99.90